Northsea Beta — 9HA2594 — position and weather

sailwx.info

Track history (hours):
 
Tides and Currents Weather Stations Pressure Air Temp Water Temp Dewpoint Dewpoint Depression Visibility Wind Speed Wind Dir Waves Ship Positions

Northsea Beta

Last reported at 2014-Sep-14 18:32 UTC. Time now 2014-Sep-17 19:40 UTC.
Position N 37°36' W 000°32'.

Length 110 m; draft 8.1 m.

Type: Ship (hazmat cat B). MMSI: 248970000.

Date/timePositionNaut miles runAvg speedWind from/ knotsBaromVisibWave heightAir tempDewpointWater temp
2014-Sep-14 18:32N 37°36' W 000°32'11 9.4
2014-Sep-14 17:20N 37°45' W 000°25'11 9.5
2014-Sep-14 16:14N 37°54' W 000°17'6 9.5
2014-Sep-14 15:33N 37°59' W 000°13'12 9.9
2014-Sep-14 14:20N 38°10' W 000°05'1110.0
2014-Sep-14 13:14N 38°19' E 000°03'11810.1
2014-Sep-14 01:30N 39°53' E 001°36'39 9.8
2014-Sep-13 21:33N 40°22' E 002°08'10 9.8
2014-Sep-13 20:33N 40°30' E 002°16'10 9.6
2014-Sep-13 19:33N 40°37' E 002°24'1010.1
2014-Sep-13 18:32N 40°45' E 002°33'9 9.6
2014-Sep-13 17:33N 40°52' E 002°41'13 9.8
2014-Sep-13 16:14N 41°03' E 002°51'7 9.4
2014-Sep-13 15:32N 41°08' E 002°57'1410.5
2014-Sep-13 14:10N 41°19' E 003°09'710.7
2014-Sep-13 13:31N 41°24' E 003°15'1110.5
2014-Sep-13 12:28N 41°32' E 003°25'1010.6
2014-Sep-13 11:32N 41°40' E 003°33'1010.1
2014-Sep-13 10:34N 41°48' E 003°41'1010.0
2014-Sep-13 09:32N 41°55' E 003°50'11 9.7
2014-Sep-13 08:23N 42°04' E 003°59'8 9.9
2014-Sep-13 07:31N 42°11' E 004°06'1310.6
2014-Sep-13 06:14N 42°22' E 004°16'810.8
2014-Sep-13 05:29N 42°29' E 004°22'4811.3
2014-Sep-13 01:13N 43°09' E 004°60'710.9
2014-Sep-13 00:33N 43°16' E 004°59'10 9.7
2014-Sep-12 23:34N 43°25' E 004°53'0 0.3
2014-Sep-12 22:31N 43°25' E 004°53'0 0.0
2014-Sep-12 21:31N 43°25' E 004°53'0 0.0
2014-Sep-12 20:31N 43°25' E 004°53'0 0.0
2014-Sep-12 19:31N 43°25' E 004°53'0 0.0
2014-Sep-12 18:31N 43°25' E 004°53'0 0.0
2014-Sep-12 17:31N 43°25' E 004°53'0 0.0
2014-Sep-12 16:31N 43°25' E 004°53'0 0.0
2014-Sep-12 15:31N 43°25' E 004°53'0 0.0
2014-Sep-12 14:31N 43°25' E 004°53'0 0.0
2014-Sep-12 13:25N 43°25' E 004°53'0 0.0
2014-Sep-12 12:25N 43°25' E 004°53'0 0.0
2014-Sep-12 11:31N 43°25' E 004°53'0 0.0
2014-Sep-12 10:31N 43°25' E 004°53'0 0.0
2014-Sep-12 09:31N 43°25' E 004°53'0 0.0
2014-Sep-12 07:07N 43°25' E 004°53'0 0.0
2014-Sep-12 06:25N 43°25' E 004°53'0 0.0
2014-Sep-12 05:25N 43°25' E 004°53'0 0.0
2014-Sep-12 04:31N 43°25' E 004°53'0 0.0
2014-Sep-12 03:31N 43°25' E 004°53'0 0.0
2014-Sep-12 02:31N 43°25' E 004°53'0 0.0
2014-Sep-12 01:31N 43°25' E 004°53'0 0.0
2014-Sep-12 00:31N 43°25' E 004°53'0 0.0
2014-Sep-11 23:31N 43°25' E 004°53'0 0.0
2014-Sep-11 22:31N 43°25' E 004°53'0 0.0
2014-Sep-11 21:28N 43°25' E 004°53'0 0.0
2014-Sep-11 20:19N 43°25' E 004°53'0 0.0
2014-Sep-11 19:31N 43°25' E 004°53'0 0.0
2014-Sep-11 18:25N 43°25' E 004°53'0 0.0
2014-Sep-11 17:31N 43°25' E 004°53'0 0.0
2014-Sep-11 16:31N 43°25' E 004°53'2 2.4
2014-Sep-11 15:31N 43°24' E 004°56'0 0.0
2014-Sep-11 14:31N 43°24' E 004°56'0 0.0
2014-Sep-11 13:31N 43°24' E 004°56'0 0.0
2014-Sep-11 12:31N 43°24' E 004°56'0 0.0
2014-Sep-11 11:31N 43°24' E 004°56'0 0.0
2014-Sep-11 10:31N 43°24' E 004°56'0 0.0
2014-Sep-11 09:31N 43°24' E 004°56'1 1.1
2014-Sep-11 08:33N 43°23' E 004°57'8 8.5
2014-Sep-11 07:33N 43°15' E 005°01'23 9.8
2014-Sep-11 05:13N 42°53' E 004°55'710.3
2014-Sep-11 04:32N 42°47' E 004°49'1010.6
2014-Sep-11 03:33N 42°39' E 004°40'1111.2
2014-Sep-11 02:33N 42°31' E 004°30'1111.2
2014-Sep-11 01:33N 42°22' E 004°21'1111.5
2014-Sep-11 00:33N 42°13' E 004°11'1211.6
2014-Sep-10 23:33N 42°04' E 004°01'1212.2
2014-Sep-10 22:33N 41°54' E 003°51'1110.8
2014-Sep-10 21:32N 41°45' E 003°42'1111.1
2014-Sep-10 20:33N 41°37' E 003°32'1211.3
2014-Sep-10 19:32N 41°28' E 003°24'1310.8
2014-Sep-10 18:20N 41°18' E 003°12'810.2
2014-Sep-10 17:32N 41°12' E 003°05'1010.4
2014-Sep-10 16:31N 41°03' E 002°57'1111.2
2014-Sep-10 15:33N 40°56' E 002°47'1110.9
2014-Sep-10 14:33N 40°47' E 002°38'2 2.2
2014-Sep-10 13:33N 40°45' E 002°36'1111.3
2014-Sep-10 12:33N 40°37' E 002°26'8 7.8
2014-Sep-10 11:33N 40°30' E 002°21'1110.9
2014-Sep-10 10:33N 40°22' E 002°12'1010.4
2014-Sep-10 09:33N 40°14' E 002°03'1110.7
2014-Sep-10 08:33N 40°05' E 001°54'1110.9
2014-Sep-10 07:33N 39°57' E 001°45'1111.0
2014-Sep-10 06:32N 39°49' E 001°36'3511.4
2014-Sep-10 03:27N 39°21' E 001°08'1111.5
2014-Sep-10 02:28N 39°12' E 000°58'6811.3
2014-Sep-09 20:29N 38°18' E 000°07'4411.0
2014-Sep-09 16:29N 37°41' W 000°25'1010.8
2014-Sep-09 15:33N 37°33' W 000°32'1310.8
2014-Sep-09 14:21N 37°24' W 000°44'23811.4
2014-Sep-08 17:33N 35°54' W 005°18'0 0.4
2014-Sep-08 16:33N 35°54' W 005°19'0 0.0
2014-Sep-08 15:33N 35°54' W 005°19'0 0.0
2014-Sep-08 14:33N 35°54' W 005°19'1 1.2
2014-Sep-08 13:33N 35°55' W 005°18'0 0.0
2014-Sep-08 12:33N 35°55' W 005°18'2 1.6
2014-Sep-08 11:33N 35°56' W 005°17'  
Track history (hours):
 
Tides and Currents Weather Stations Pressure Air Temp Water Temp Dewpoint Dewpoint Depression Visibility Wind Speed Wind Dir Waves Ship Positions

Northsea Beta

Last reported at 2014-Sep-14 18:32 UTC. Time now 2014-Sep-17 19:40 UTC.
Position N 37°36' W 000°32'.

Length 110 m; draft 8.1 m.

Type: Ship (hazmat cat B). MMSI: 248970000.

Date/timePositionNaut miles runAvg speedWind from/ knotsBaromVisibWave heightAir tempDewpointWater temp
2014-Sep-14 18:32N 37°36' W 000°32'11 9.4
2014-Sep-14 17:20N 37°45' W 000°25'11 9.5
2014-Sep-14 16:14N 37°54' W 000°17'6 9.5
2014-Sep-14 15:33N 37°59' W 000°13'12 9.9
2014-Sep-14 14:20N 38°10' W 000°05'1110.0
2014-Sep-14 13:14N 38°19' E 000°03'11810.1
2014-Sep-14 01:30N 39°53' E 001°36'39 9.8
2014-Sep-13 21:33N 40°22' E 002°08'10 9.8
2014-Sep-13 20:33N 40°30' E 002°16'10 9.6
2014-Sep-13 19:33N 40°37' E 002°24'1010.1
2014-Sep-13 18:32N 40°45' E 002°33'9 9.6
2014-Sep-13 17:33N 40°52' E 002°41'13 9.8
2014-Sep-13 16:14N 41°03' E 002°51'7 9.4
2014-Sep-13 15:32N 41°08' E 002°57'1410.5
2014-Sep-13 14:10N 41°19' E 003°09'710.7
2014-Sep-13 13:31N 41°24' E 003°15'1110.5
2014-Sep-13 12:28N 41°32' E 003°25'1010.6
2014-Sep-13 11:32N 41°40' E 003°33'1010.1
2014-Sep-13 10:34N 41°48' E 003°41'1010.0
2014-Sep-13 09:32N 41°55' E 003°50'11 9.7
2014-Sep-13 08:23N 42°04' E 003°59'8 9.9
2014-Sep-13 07:31N 42°11' E 004°06'1310.6
2014-Sep-13 06:14N 42°22' E 004°16'810.8
2014-Sep-13 05:29N 42°29' E 004°22'4811.3
2014-Sep-13 01:13N 43°09' E 004°60'710.9
2014-Sep-13 00:33N 43°16' E 004°59'10 9.7
2014-Sep-12 23:34N 43°25' E 004°53'0 0.3
2014-Sep-12 22:31N 43°25' E 004°53'0 0.0
2014-Sep-12 21:31N 43°25' E 004°53'0 0.0
2014-Sep-12 20:31N 43°25' E 004°53'0 0.0
2014-Sep-12 19:31N 43°25' E 004°53'0 0.0
2014-Sep-12 18:31N 43°25' E 004°53'0 0.0
2014-Sep-12 17:31N 43°25' E 004°53'0 0.0
2014-Sep-12 16:31N 43°25' E 004°53'0 0.0
2014-Sep-12 15:31N 43°25' E 004°53'0 0.0
2014-Sep-12 14:31N 43°25' E 004°53'0 0.0
2014-Sep-12 13:25N 43°25' E 004°53'0 0.0
2014-Sep-12 12:25N 43°25' E 004°53'0 0.0
2014-Sep-12 11:31N 43°25' E 004°53'0 0.0
2014-Sep-12 10:31N 43°25' E 004°53'0 0.0
2014-Sep-12 09:31N 43°25' E 004°53'0 0.0
2014-Sep-12 07:07N 43°25' E 004°53'0 0.0
2014-Sep-12 06:25N 43°25' E 004°53'0 0.0
2014-Sep-12 05:25N 43°25' E 004°53'0 0.0
2014-Sep-12 04:31N 43°25' E 004°53'0 0.0
2014-Sep-12 03:31N 43°25' E 004°53'0 0.0
2014-Sep-12 02:31N 43°25' E 004°53'0 0.0
2014-Sep-12 01:31N 43°25' E 004°53'0 0.0
2014-Sep-12 00:31N 43°25' E 004°53'0 0.0
2014-Sep-11 23:31N 43°25' E 004°53'0 0.0
2014-Sep-11 22:31N 43°25' E 004°53'0 0.0
2014-Sep-11 21:28N 43°25' E 004°53'0 0.0
2014-Sep-11 20:19N 43°25' E 004°53'0 0.0
2014-Sep-11 19:31N 43°25' E 004°53'0 0.0
2014-Sep-11 18:25N 43°25' E 004°53'0 0.0
2014-Sep-11 17:31N 43°25' E 004°53'0 0.0
2014-Sep-11 16:31N 43°25' E 004°53'2 2.4
2014-Sep-11 15:31N 43°24' E 004°56'0 0.0
2014-Sep-11 14:31N 43°24' E 004°56'0 0.0
2014-Sep-11 13:31N 43°24' E 004°56'0 0.0
2014-Sep-11 12:31N 43°24' E 004°56'0 0.0
2014-Sep-11 11:31N 43°24' E 004°56'0 0.0
2014-Sep-11 10:31N 43°24' E 004°56'0 0.0
2014-Sep-11 09:31N 43°24' E 004°56'1 1.1
2014-Sep-11 08:33N 43°23' E 004°57'8 8.5
2014-Sep-11 07:33N 43°15' E 005°01'23 9.8
2014-Sep-11 05:13N 42°53' E 004°55'710.3
2014-Sep-11 04:32N 42°47' E 004°49'1010.6
2014-Sep-11 03:33N 42°39' E 004°40'1111.2
2014-Sep-11 02:33N 42°31' E 004°30'1111.2
2014-Sep-11 01:33N 42°22' E 004°21'1111.5
2014-Sep-11 00:33N 42°13' E 004°11'1211.6
2014-Sep-10 23:33N 42°04' E 004°01'1212.2
2014-Sep-10 22:33N 41°54' E 003°51'1110.8
2014-Sep-10 21:32N 41°45' E 003°42'1111.1
2014-Sep-10 20:33N 41°37' E 003°32'1211.3
2014-Sep-10 19:32N 41°28' E 003°24'1310.8
2014-Sep-10 18:20N 41°18' E 003°12'810.2
2014-Sep-10 17:32N 41°12' E 003°05'1010.4
2014-Sep-10 16:31N 41°03' E 002°57'1111.2
2014-Sep-10 15:33N 40°56' E 002°47'1110.9
2014-Sep-10 14:33N 40°47' E 002°38'2 2.2
2014-Sep-10 13:33N 40°45' E 002°36'1111.3
2014-Sep-10 12:33N 40°37' E 002°26'8 7.8
2014-Sep-10 11:33N 40°30' E 002°21'1110.9
2014-Sep-10 10:33N 40°22' E 002°12'1010.4
2014-Sep-10 09:33N 40°14' E 002°03'1110.7
2014-Sep-10 08:33N 40°05' E 001°54'1110.9
2014-Sep-10 07:33N 39°57' E 001°45'1111.0
2014-Sep-10 06:32N 39°49' E 001°36'3511.4
2014-Sep-10 03:27N 39°21' E 001°08'1111.5
2014-Sep-10 02:28N 39°12' E 000°58'6811.3
2014-Sep-09 20:29N 38°18' E 000°07'4411.0
2014-Sep-09 16:29N 37°41' W 000°25'1010.8
2014-Sep-09 15:33N 37°33' W 000°32'1310.8
2014-Sep-09 14:21N 37°24' W 000°44'23811.4
2014-Sep-08 17:33N 35°54' W 005°18'0 0.4
2014-Sep-08 16:33N 35°54' W 005°19'0 0.0
2014-Sep-08 15:33N 35°54' W 005°19'0 0.0
2014-Sep-08 14:33N 35°54' W 005°19'1 1.2
2014-Sep-08 13:33N 35°55' W 005°18'0 0.0
2014-Sep-08 12:33N 35°55' W 005°18'2 1.6
2014-Sep-08 11:33N 35°56' W 005°17'  

Dump ship's entire track history